Time;durP1;ratioP1;P1;durP2;ratioP2;P2;SDS_P1;SDS_P2;PMS_P1;PMS_P2;Temp;Humidity;BMP_temperature;BMP_pressure;BME280_temperature;BME280_humidity;BME280_pressure;Samples;Min_cycle;Max_cycle;Signal;HPM_P1;HPM_P2
2024/02/21 00:01:39;;;;;;;18.23;6.47;;;9.50;99.90;;;;;;5014880;28;20036;-53
2024/02/21 00:04:05;;;;;;;21.43;7.23;;;9.40;99.90;;;;;;5014631;28;20132;-49
2024/02/21 00:06:32;;;;;;;20.47;6.47;;;9.40;99.90;;;;;;5014865;28;20080;-50
2024/02/21 00:08:57;;;;;;;20.80;7.40;;;9.40;99.90;;;;;;5014796;28;20038;-50
2024/02/21 00:11:23;;;;;;;17.77;6.53;;;9.40;99.90;;;;;;5014775;28;20390;-50
2024/02/21 00:13:50;;;;;;;19.00;7.03;;;9.40;99.90;;;;;;5014438;28;20468;-49
2024/02/21 00:16:16;;;;;;;20.63;7.20;;;9.40;99.90;;;;;;5014820;28;20041;-50
2024/02/21 00:18:43;;;;;;;27.13;7.47;;;9.30;99.90;;;;;;5014734;28;20030;-50
2024/02/21 00:21:08;;;;;;;21.87;8.03;;;9.30;99.90;;;;;;5014512;28;20483;-50
2024/02/21 00:23:34;;;;;;;23.67;7.07;;;9.30;99.90;;;;;;5014785;28;20041;-52
2024/02/21 00:26:00;;;;;;;23.13;7.03;;;9.30;99.90;;;;;;5014861;28;20455;-49
2024/02/21 00:28:25;;;;;;;27.53;7.17;;;9.30;99.90;;;;;;5014584;28;20034;-51
2024/02/21 00:30:52;;;;;;;23.93;8.23;;;9.40;99.90;;;;;;5014641;28;20041;-51
2024/02/21 00:33:19;;;;;;;24.27;7.83;;;9.40;99.90;;;;;;5014549;28;20025;-52
2024/02/21 00:35:44;;;;;;;26.60;8.03;;;9.40;99.90;;;;;;5014512;28;20030;-48
2024/02/21 00:38:10;;;;;;;22.30;8.17;;;9.40;99.90;;;;;;5014441;28;20060;-52
2024/02/21 00:40:36;;;;;;;21.43;7.93;;;9.40;99.90;;;;;;5013157;28;20045;-49
2024/02/21 00:43:01;;;;;;;21.63;7.53;;;9.40;99.90;;;;;;5014349;28;20395;-48
2024/02/21 00:45:27;;;;;;;21.63;8.23;;;9.40;99.90;;;;;;5014311;28;20482;-48
2024/02/21 00:47:52;;;;;;;18.27;7.10;;;9.40;99.90;;;;;;5014235;28;20490;-48
2024/02/21 00:50:18;;;;;;;22.23;6.97;;;9.40;99.90;;;;;;5012774;28;20065;-49
2024/02/21 00:52:44;;;;;;;21.07;7.47;;;9.30;99.90;;;;;;5014215;28;20064;-48
2024/02/21 00:55:10;;;;;;;22.30;7.57;;;9.30;99.90;;;;;;5014021;28;20029;-51
2024/02/21 00:57:36;;;;;;;23.00;8.10;;;9.30;99.90;;;;;;5013244;28;20439;-49
2024/02/21 01:00:03;;;;;;;22.97;9.13;;;9.30;99.90;;;;;;5013919;28;20570;-50
2024/02/21 01:02:31;;;;;;;24.40;8.83;;;9.30;99.90;;;;;;5013952;28;20030;-49
2024/02/21 01:04:57;;;;;;;20.13;7.47;;;9.20;99.90;;;;;;5013884;28;20049;-50
2024/02/21 01:07:24;;;;;;;23.17;8.33;;;9.30;99.90;;;;;;5013936;28;20453;-50
2024/02/21 01:09:51;;;;;;;21.03;7.07;;;9.30;99.90;;;;;;5012499;28;20421;-49
2024/02/21 01:12:16;;;;;;;21.60;7.47;;;9.30;99.90;;;;;;5013953;28;20069;-49
2024/02/21 01:14:42;;;;;;;19.50;7.50;;;9.30;99.90;;;;;;5013844;28;20072;-51
2024/02/21 01:17:08;;;;;;;23.40;7.10;;;9.30;99.90;;;;;;5013865;28;20467;-51
2024/02/21 01:19:34;;;;;;;18.93;7.20;;;9.30;99.90;;;;;;5013940;28;20395;-49
2024/02/21 01:21:59;;;;;;;22.90;8.00;;;9.30;99.90;;;;;;5013748;28;20029;-49
2024/02/21 01:24:25;;;;;;;16.60;6.83;;;9.40;99.90;;;;;;5013473;28;20025;-51
2024/02/21 01:26:51;;;;;;;20.63;7.73;;;9.30;99.90;;;;;;5012381;28;20100;-52
2024/02/21 01:29:16;;;;;;;18.63;6.90;;;9.30;99.90;;;;;;5013158;28;20458;-49
2024/02/21 01:31:42;;;;;;;19.10;6.90;;;9.40;99.90;;;;;;5013485;28;20071;-49
2024/02/21 01:34:08;;;;;;;21.67;7.10;;;9.40;99.90;;;;;;5013371;28;20076;-49
2024/02/21 01:36:33;;;;;;;19.23;7.30;;;9.40;99.90;;;;;;5013532;28;20030;-50
2024/02/21 01:38:59;;;;;;;18.93;6.90;;;9.30;99.90;;;;;;5013513;28;20056;-48
2024/02/21 01:41:25;;;;;;;15.73;7.00;;;9.30;99.90;;;;;;5013195;28;20034;-49
2024/02/21 01:43:50;;;;;;;17.50;6.43;;;9.20;99.90;;;;;;5013237;28;20120;-49
2024/02/21 01:46:16;;;;;;;17.50;7.03;;;9.30;99.90;;;;;;5013187;28;20402;-48
2024/02/21 01:48:41;;;;;;;20.77;6.53;;;9.30;99.90;;;;;;5013058;28;20029;-49
2024/02/21 01:51:08;;;;;;;15.53;5.73;;;9.40;99.90;;;;;;5012984;28;20309;-49
2024/02/21 01:53:37;;;;;;;16.13;6.23;;;9.30;99.90;;;;;;5013017;28;20026;-48
2024/02/21 01:56:05;;;;;;;17.50;7.53;;;9.30;99.90;;;;;;5013092;28;20033;-50
2024/02/21 01:58:32;;;;;;;18.47;6.20;;;9.40;99.90;;;;;;5012972;28;20068;-47
2024/02/21 02:00:57;;;;;;;16.93;6.57;;;9.30;99.90;;;;;;5013006;28;20030;-48
2024/02/21 02:03:25;;;;;;;20.37;6.67;;;9.30;99.90;;;;;;5013416;28;20036;-48
2024/02/21 02:05:51;;;;;;;21.77;7.03;;;9.30;99.90;;;;;;5013458;28;20030;-48
2024/02/21 02:08:24;;;;;;;15.63;6.17;;;9.30;99.90;;;;;;5012950;28;20037;-49
2024/02/21 02:10:50;;;;;;;16.40;6.17;;;9.30;99.90;;;;;;5013200;28;20457;-48
2024/02/21 02:13:16;;;;;;;17.00;5.83;;;9.30;99.90;;;;;;5013240;28;20121;-48
2024/02/21 02:15:43;;;;;;;24.13;6.90;;;9.20;99.90;;;;;;5013109;28;20156;-49
2024/02/21 02:18:10;;;;;;;18.50;5.60;;;9.20;99.90;;;;;;5013191;28;20040;-49
2024/02/21 02:20:36;;;;;;;24.83;6.33;;;9.20;99.90;;;;;;5013049;28;20490;-48
2024/02/21 02:23:31;;;;;;;16.30;5.60;;;9.10;99.90;;;;;;5014883;28;20398;-49
2024/02/21 02:25:58;;;;;;;16.97;5.37;;;9.10;99.90;;;;;;5007630;28;20046;-49
2024/02/21 02:28:24;;;;;;;15.33;6.10;;;9.10;99.90;;;;;;5014530;28;20467;-48
2024/02/21 02:30:50;;;;;;;18.77;5.80;;;9.00;99.90;;;;;;5014268;28;20037;-50
2024/02/21 02:33:19;;;;;;;16.63;6.30;;;9.00;99.90;;;;;;5012486;28;20044;-50
2024/02/21 02:35:45;;;;;;;18.45;5.97;;;9.00;99.90;;;;;;5012275;28;20030;-49
2024/02/21 02:38:11;;;;;;;18.53;5.90;;;9.00;99.90;;;;;;5012626;28;20029;-48
2024/02/21 02:40:38;;;;;;;16.53;6.13;;;8.90;99.90;;;;;;5012139;28;20040;-48
2024/02/21 02:43:04;;;;;;;15.77;5.80;;;8.90;99.90;;;;;;5012324;28;20458;-52
2024/02/21 02:45:29;;;;;;;16.73;6.43;;;8.90;99.90;;;;;;5012294;28;20113;-50
2024/02/21 02:47:56;;;;;;;15.70;5.63;;;8.90;99.90;;;;;;5012372;28;20088;-48
2024/02/21 02:50:27;;;;;;;20.63;6.60;;;8.90;99.90;;;;;;5010753;28;20450;-49
2024/02/21 02:52:53;;;;;;;15.07;5.53;;;8.90;99.90;;;;;;5011062;28;20040;-51
2024/02/21 02:55:19;;;;;;;12.77;4.90;;;8.90;99.90;;;;;;5012267;28;20108;-51
2024/02/21 02:57:45;;;;;;;16.13;5.77;;;8.90;99.90;;;;;;5012247;28;20128;-50
2024/02/21 03:00:11;;;;;;;16.70;5.77;;;8.80;99.90;;;;;;5011924;28;20116;-50
2024/02/21 03:02:39;;;;;;;21.00;6.57;;;8.80;99.90;;;;;;5012276;28;20030;-52
2024/02/21 03:05:19;;;;;;;18.53;5.63;;;8.80;99.90;;;;;;5012267;28;20129;-49
2024/02/21 03:07:46;;;;;;;16.83;5.73;;;8.80;99.90;;;;;;5012136;28;20458;-52
2024/02/21 03:10:13;;;;;;;17.87;5.70;;;8.70;99.90;;;;;;5011975;28;20498;-47
2024/02/21 03:12:39;;;;;;;13.53;5.47;;;8.70;99.90;;;;;;5012135;28;20033;-49
2024/02/21 03:15:05;;;;;;;17.33;6.00;;;8.60;99.90;;;;;;5011990;28;20032;-50
2024/02/21 03:17:32;;;;;;;15.87;5.23;;;8.60;99.90;;;;;;5012005;28;20038;-50
2024/02/21 03:19:59;;;;;;;12.23;5.27;;;8.60;99.90;;;;;;5012079;28;20030;-52
2024/02/21 03:22:25;;;;;;;19.37;5.63;;;8.70;99.90;;;;;;5015963;28;20113;-48
2024/02/21 03:24:51;;;;;;;13.23;5.07;;;8.80;99.90;;;;;;5015855;28;20118;-49
2024/02/21 03:27:17;;;;;;;16.23;5.60;;;8.80;99.90;;;;;;5015754;28;20434;-50
2024/02/21 03:29:42;;;;;;;15.10;5.87;;;8.70;99.90;;;;;;5015575;28;20455;-48
2024/02/21 03:32:08;;;;;;;18.80;5.70;;;8.60;99.90;;;;;;5015734;28;20032;-50
2024/02/21 03:34:33;;;;;;;16.50;5.20;;;8.60;99.90;;;;;;5015574;28;20054;-49
2024/02/21 03:36:59;;;;;;;19.87;5.30;;;8.50;99.90;;;;;;5015674;28;20084;-51
2024/02/21 03:39:25;;;;;;;15.30;4.63;;;8.60;99.90;;;;;;5015397;28;20044;-49
2024/02/21 03:41:51;;;;;;;13.47;4.93;;;8.50;99.90;;;;;;5015693;28;20512;-49
2024/02/21 03:44:17;;;;;;;16.47;5.73;;;8.50;99.90;;;;;;5015590;28;20083;-52
2024/02/21 03:46:42;;;;;;;15.03;5.27;;;8.50;99.90;;;;;;5015610;28;20026;-50
2024/02/21 03:49:08;;;;;;;13.67;5.07;;;8.50;99.90;;;;;;5015186;28;20433;-49
2024/02/21 03:51:33;;;;;;;18.50;5.00;;;8.50;99.90;;;;;;5015559;28;20033;-50
2024/02/21 03:53:59;;;;;;;14.63;5.03;;;8.60;99.90;;;;;;5015254;28;20143;-50
2024/02/21 03:56:25;;;;;;;15.23;5.33;;;8.60;99.90;;;;;;5015364;28;20032;-50
2024/02/21 03:58:50;;;;;;;20.00;6.03;;;8.70;99.90;;;;;;5015266;28;20030;-51
2024/02/21 04:01:16;;;;;;;13.40;4.80;;;8.70;99.90;;;;;;5013833;28;20053;-52
2024/02/21 04:03:44;;;;;;;15.83;4.90;;;8.80;99.90;;;;;;5015168;28;20080;-50
2024/02/21 04:06:09;;;;;;;13.03;5.37;;;8.70;99.90;;;;;;5015383;28;20538;-50
2024/02/21 04:08:35;;;;;;;18.20;5.43;;;8.70;99.90;;;;;;5015116;28;20054;-49
2024/02/21 04:11:01;;;;;;;14.77;5.50;;;8.60;99.90;;;;;;5015044;28;20475;-49
2024/02/21 04:13:26;;;;;;;15.27;5.63;;;8.60;99.90;;;;;;5014994;28;20025;-51
2024/02/21 04:15:52;;;;;;;12.40;5.07;;;8.60;99.90;;;;;;5015051;28;20025;-52
2024/02/21 04:18:18;;;;;;;13.77;4.70;;;8.60;99.90;;;;;;5014965;28;20064;-50
2024/02/21 04:20:43;;;;;;;11.73;5.13;;;8.70;99.90;;;;;;5015090;28;20029;-52
2024/02/21 04:23:09;;;;;;;14.37;5.40;;;8.70;99.90;;;;;;5014901;28;20038;-50
2024/02/21 04:25:35;;;;;;;12.67;5.57;;;8.80;99.90;;;;;;5014737;28;20030;-51
2024/02/21 04:28:01;;;;;;;17.53;5.10;;;8.80;99.90;;;;;;5014929;28;20374;-51
2024/02/21 04:30:26;;;;;;;20.43;6.23;;;8.80;99.90;;;;;;5014439;28;20034;-49
2024/02/21 04:32:52;;;;;;;16.57;5.13;;;8.80;99.90;;;;;;5013048;28;20045;-50
2024/02/21 04:35:18;;;;;;;19.00;6.07;;;8.70;99.90;;;;;;5014636;28;20161;-49
2024/02/21 04:37:44;;;;;;;14.83;5.23;;;8.70;99.90;;;;;;5014437;28;20079;-49
2024/02/21 04:40:10;;;;;;;18.30;5.23;;;8.60;99.90;;;;;;5019632;28;20480;-49
2024/02/21 04:42:36;;;;;;;13.53;5.20;;;8.60;99.90;;;;;;5018763;28;20058;-49
2024/02/21 04:45:02;;;;;;;12.00;5.10;;;8.70;99.90;;;;;;5032673;28;20582;-50
2024/02/21 04:47:28;;;;;;;11.20;4.43;;;8.70;99.90;;;;;;5024317;28;20025;-51
2024/02/21 04:49:54;;;;;;;12.67;4.70;;;8.80;99.90;;;;;;5015644;28;20083;-51
2024/02/21 04:52:19;;;;;;;13.87;5.53;;;8.70;99.90;;;;;;5025284;28;20033;-49
2024/02/21 04:54:45;;;;;;;13.13;4.93;;;8.80;99.90;;;;;;5022316;28;20092;-50
2024/02/21 04:57:10;;;;;;;16.13;5.27;;;8.80;99.90;;;;;;5031590;28;20395;-51
2024/02/21 04:59:36;;;;;;;12.40;4.57;;;8.80;99.90;;;;;;5031399;28;20456;-49
2024/02/21 05:02:02;;;;;;;14.67;4.93;;;8.80;99.90;;;;;;5024766;28;20029;-49
2024/02/21 05:04:28;;;;;;;13.07;4.90;;;8.80;99.90;;;;;;5032019;28;20057;-51
2024/02/21 05:06:54;;;;;;;13.53;4.27;;;8.80;99.90;;;;;;5014097;28;20080;-49
2024/02/21 05:09:21;;;;;;;11.17;4.07;;;8.80;99.90;;;;;;5030206;28;20033;-50
2024/02/21 05:11:47;;;;;;;11.87;4.17;;;8.80;99.90;;;;;;5021678;28;20148;-52
2024/02/21 05:14:13;;;;;;;17.97;5.10;;;8.80;99.90;;;;;;5017846;28;20120;-50
2024/02/21 05:16:39;;;;;;;16.43;4.67;;;8.80;99.90;;;;;;5031660;28;20112;-50
2024/02/21 05:19:05;;;;;;;10.87;4.57;;;8.90;99.90;;;;;;5031548;28;20090;-50
2024/02/21 05:21:31;;;;;;;14.90;4.90;;;8.90;99.90;;;;;;5031770;28;20029;-49
2024/02/21 05:23:56;;;;;;;13.10;4.13;;;8.80;99.90;;;;;;5031666;28;20478;-50
2024/02/21 05:26:26;;;;;;;15.27;4.57;;;8.90;99.90;;;;;;5022265;28;20037;-53
2024/02/21 05:28:51;;;;;;;14.90;4.03;;;8.80;99.90;;;;;;5023543;28;20042;-51
2024/02/21 05:31:21;;;;;;;16.03;5.00;;;8.80;99.90;;;;;;5023326;28;20052;-49
2024/02/21 05:33:47;;;;;;;13.73;5.03;;;8.80;99.90;;;;;;5023107;28;20391;-49
2024/02/21 05:36:13;;;;;;;9.80;4.37;;;8.80;99.90;;;;;;5026355;28;20033;-51
2024/02/21 05:38:39;;;;;;;14.07;3.97;;;8.80;99.90;;;;;;5016946;28;20038;-49
2024/02/21 05:41:05;;;;;;;14.43;4.80;;;8.80;99.90;;;;;;5022858;28;20025;-53
2024/02/21 05:43:31;;;;;;;16.40;4.57;;;8.90;99.90;;;;;;5022719;28;20060;-52
2024/02/21 05:45:57;;;;;;;10.07;3.63;;;8.80;99.90;;;;;;5029391;28;20053;-51
2024/02/21 05:48:23;;;;;;;16.97;4.77;;;8.70;99.90;;;;;;5023063;28;20517;-49
2024/02/21 05:50:49;;;;;;;12.90;4.13;;;8.70;99.90;;;;;;5020862;28;20036;-49
2024/02/21 05:53:15;;;;;;;14.13;4.27;;;8.80;99.90;;;;;;5025142;28;20041;-49
2024/02/21 05:55:41;;;;;;;9.03;3.90;;;8.70;99.90;;;;;;5022801;28;20067;-50
2024/02/21 05:58:07;;;;;;;15.20;4.07;;;8.80;99.90;;;;;;5031112;28;20029;-49
2024/02/21 06:00:33;;;;;;;15.17;3.90;;;8.70;99.90;;;;;;5030989;28;20034;-49
2024/02/21 06:02:59;;;;;;;13.70;4.10;;;8.80;99.90;;;;;;5019610;28;20022;-49
2024/02/21 06:05:25;;;;;;;12.43;3.87;;;8.80;99.90;;;;;;5018321;28;20517;-51
2024/02/21 06:07:50;;;;;;;12.27;4.27;;;8.80;99.90;;;;;;5022472;28;20062;-52
2024/02/21 06:10:16;;;;;;;11.53;3.70;;;8.80;99.90;;;;;;5025456;28;20026;-50
2024/02/21 06:12:42;;;;;;;12.23;3.80;;;8.80;99.90;;;;;;5027966;28;20478;-51
2024/02/21 06:15:08;;;;;;;12.07;4.07;;;8.80;99.90;;;;;;5027052;28;20018;-58
2024/02/21 06:17:33;;;;;;;10.50;3.60;;;8.80;99.90;;;;;;5019680;28;20542;-51
2024/02/21 06:19:59;;;;;;;11.87;4.03;;;8.70;99.90;;;;;;5030160;28;20029;-49
2024/02/21 06:22:25;;;;;;;11.87;3.63;;;8.80;99.90;;;;;;5030875;28;20112;-49
2024/02/21 06:24:50;;;;;;;9.63;4.40;;;8.80;99.90;;;;;;5022309;28;20029;-53
2024/02/21 06:27:17;;;;;;;11.10;3.50;;;8.80;99.90;;;;;;5030621;28;20037;-53
2024/02/21 06:29:42;;;;;;;15.33;4.13;;;8.90;99.90;;;;;;5021513;28;20038;-50
2024/02/21 06:32:08;;;;;;;14.17;3.60;;;8.80;99.90;;;;;;5022741;28;20159;-52
2024/02/21 06:34:33;;;;;;;11.63;3.80;;;8.90;99.90;;;;;;5022203;28;20036;-54
2024/02/21 06:36:59;;;;;;;11.83;4.13;;;8.90;99.90;;;;;;5019511;28;20387;-52
2024/02/21 06:39:25;;;;;;;10.87;3.90;;;8.80;99.90;;;;;;5016695;28;20494;-54
2024/02/21 06:41:51;;;;;;;7.83;3.53;;;8.80;99.90;;;;;;5013934;28;20033;-54
2024/02/21 06:44:17;;;;;;;11.33;3.47;;;8.80;99.90;;;;;;5022259;28;20033;-53
2024/02/21 06:46:43;;;;;;;14.00;4.47;;;8.90;99.90;;;;;;5029856;28;20119;-54
2024/02/21 06:49:08;;;;;;;9.80;3.67;;;8.80;99.90;;;;;;5012955;28;20113;-54
2024/02/21 06:51:34;;;;;;;12.67;3.63;;;8.90;99.90;;;;;;5022932;28;20034;-53
2024/02/21 06:54:00;;;;;;;11.07;3.87;;;8.80;99.90;;;;;;5029534;28;20425;-55
2024/02/21 06:56:29;;;;;;;12.77;3.90;;;8.80;99.90;;;;;;5029506;28;20451;-53
2024/02/21 06:58:57;;;;;;;10.95;3.17;;;8.80;99.90;;;;;;5030273;28;20025;-55
2024/02/21 07:01:24;;;;;;;8.02;3.78;;;8.80;99.90;;;;;;5029939;28;20040;-49
2024/02/21 07:03:49;;;;;;;9.80;3.83;;;8.80;99.90;;;;;;5030436;28;20032;-53
2024/02/21 07:06:15;;;;;;;11.47;3.67;;;8.90;99.90;;;;;;5030404;28;20037;-52
2024/02/21 07:08:41;;;;;;;12.57;3.77;;;8.90;99.90;;;;;;5028943;28;20037;-53
2024/02/21 07:11:06;;;;;;;10.83;3.53;;;8.90;99.90;;;;;;5020768;28;20451;-52
2024/02/21 07:13:32;;;;;;;11.07;3.23;;;9.00;99.90;;;;;;5030587;28;20028;-54
2024/02/21 07:15:58;;;;;;;10.53;3.63;;;9.00;99.90;;;;;;5029794;28;20028;-53
2024/02/21 07:18:25;;;;;;;10.23;4.40;;;9.00;99.90;;;;;;5022266;28;20398;-50
2024/02/21 07:20:51;;;;;;;8.10;2.73;;;9.10;99.90;;;;;;5029938;28;20097;-51
2024/02/21 07:23:18;;;;;;;9.47;3.43;;;9.00;99.90;;;;;;5025406;28;20034;-53
2024/02/21 07:25:43;;;;;;;9.07;2.80;;;9.10;99.90;;;;;;5018409;28;20037;-51
2024/02/21 07:28:09;;;;;;;12.23;3.07;;;9.10;99.90;;;;;;5030102;28;20026;-50
2024/02/21 07:30:35;;;;;;;11.33;3.00;;;9.10;99.90;;;;;;5029693;28;20161;-52
2024/02/21 07:33:00;;;;;;;12.30;3.47;;;9.00;99.90;;;;;;5027571;28;20079;-53
2024/02/21 07:35:26;;;;;;;11.47;3.20;;;9.00;99.90;;;;;;5024303;28;20025;-51
2024/02/21 07:37:52;;;;;;;10.37;3.57;;;9.10;99.90;;;;;;5021257;28;20116;-52
2024/02/21 07:40:18;;;;;;;10.30;3.03;;;9.10;99.90;;;;;;5025220;28;20025;-50
2024/02/21 07:42:44;;;;;;;8.77;3.00;;;9.20;99.90;;;;;;5018285;28;20057;-50
2024/02/21 07:45:10;;;;;;;8.63;3.40;;;9.20;99.90;;;;;;5005279;28;20033;-49
2024/02/21 07:47:37;;;;;;;10.87;3.97;;;9.20;99.90;;;;;;5028114;28;20038;-50
2024/02/21 07:50:03;;;;;;;8.83;3.33;;;9.30;99.90;;;;;;5029806;28;20037;-50
2024/02/21 07:52:29;;;;;;;8.87;2.80;;;9.40;99.90;;;;;;5020290;28;20425;-49
2024/02/21 07:54:54;;;;;;;8.57;3.73;;;9.30;99.90;;;;;;5028572;28;20061;-50
2024/02/21 07:57:20;;;;;;;12.00;3.20;;;9.40;99.90;;;;;;5016748;28;20079;-52
2024/02/21 07:59:47;;;;;;;8.50;3.40;;;9.50;99.90;;;;;;5023210;28;20128;-52
2024/02/21 08:02:14;;;;;;;8.27;3.40;;;9.50;99.90;;;;;;5014737;28;20029;-51
2024/02/21 08:04:39;;;;;;;8.70;2.90;;;9.40;99.90;;;;;;5029913;28;20045;-51
2024/02/21 08:07:05;;;;;;;7.13;2.67;;;9.40;99.90;;;;;;5031815;28;20475;-50
2024/02/21 08:09:31;;;;;;;8.53;3.00;;;9.40;99.90;;;;;;5027450;28;20045;-49
2024/02/21 08:11:56;;;;;;;8.47;2.80;;;9.40;99.90;;;;;;5030027;28;20026;-49
2024/02/21 08:14:22;;;;;;;8.80;2.50;;;9.30;99.90;;;;;;5033857;28;20490;-51
2024/02/21 08:16:48;;;;;;;5.93;2.60;;;9.40;99.90;;;;;;5025833;28;20028;-50
2024/02/21 08:19:13;;;;;;;10.30;3.07;;;9.40;99.90;;;;;;5026414;28;20057;-52
2024/02/21 08:21:39;;;;;;;11.13;3.10;;;9.30;99.90;;;;;;5032892;28;20057;-54
2024/02/21 08:24:05;;;;;;;6.43;2.87;;;9.30;99.90;;;;;;5016945;28;20471;-52
2024/02/21 08:26:31;;;;;;;14.80;6.87;;;9.20;99.90;;;;;;5023670;28;20510;-50
2024/02/21 08:29:00;;;;;;;8.83;2.93;;;9.30;99.90;;;;;;5022087;28;20037;-50
2024/02/21 08:31:31;;;;;;;7.93;2.57;;;9.20;99.90;;;;;;5024288;28;20080;-53
2024/02/21 08:34:03;;;;;;;11.97;3.17;;;9.20;99.90;;;;;;5019477;28;20818;-51
2024/02/21 08:36:33;;;;;;;9.93;3.47;;;9.10;99.90;;;;;;5021818;28;20021;-51
2024/02/21 08:38:59;;;;;;;8.50;3.00;;;9.10;99.90;;;;;;5028221;28;20068;-50
2024/02/21 08:41:25;;;;;;;8.27;2.60;;;9.10;99.90;;;;;;5016739;28;20025;-52
2024/02/21 08:43:53;;;;;;;13.63;3.27;;;9.00;99.90;;;;;;5023911;28;20136;-53
2024/02/21 08:46:20;;;;;;;11.57;3.30;;;9.10;99.90;;;;;;5020122;28;20438;-55
2024/02/21 08:48:46;;;;;;;9.43;3.13;;;9.10;99.90;;;;;;5012804;28;20116;-53
2024/02/21 08:51:12;;;;;;;7.73;2.60;;;9.00;99.90;;;;;;5021578;28;20113;-54
2024/02/21 08:53:38;;;;;;;7.67;2.90;;;9.00;99.90;;;;;;5021383;28;20054;-52
2024/02/21 08:56:05;;;;;;;10.30;2.67;;;9.10;99.90;;;;;;5015368;28;20076;-53
2024/02/21 08:58:30;;;;;;;13.60;3.67;;;9.10;99.90;;;;;;5023991;28;20029;-51
2024/02/21 09:00:56;;;;;;;7.17;2.53;;;9.10;99.90;;;;;;5015669;28;20526;-53
2024/02/21 09:03:22;;;;;;;7.40;2.87;;;9.10;99.90;;;;;;5015968;28;20120;-51
2024/02/21 09:05:48;;;;;;;6.93;2.33;;;9.10;99.90;;;;;;5014765;28;20056;-51
2024/02/21 09:08:14;;;;;;;8.70;3.00;;;9.20;99.90;;;;;;5023626;28;20033;-54
2024/02/21 09:10:40;;;;;;;8.97;2.80;;;9.10;99.90;;;;;;5013773;28;20034;-52
2024/02/21 09:13:07;;;;;;;14.97;3.20;;;9.20;99.90;;;;;;5016075;28;20356;-51
2024/02/21 09:15:33;;;;;;;8.30;3.00;;;9.20;99.90;;;;;;5017386;28;20065;-51
2024/02/21 09:17:59;;;;;;;10.07;2.67;;;9.30;99.90;;;;;;5016537;28;20108;-53
2024/02/21 09:20:25;;;;;;;11.43;2.97;;;9.30;99.90;;;;;;5023319;28;20025;-49
2024/02/21 09:22:50;;;;;;;7.93;2.23;;;9.30;99.90;;;;;;5020807;28;20029;-53
2024/02/21 09:25:17;;;;;;;10.37;2.83;;;9.30;99.90;;;;;;5025072;28;20041;-52
2024/02/21 09:27:44;;;;;;;6.87;2.20;;;9.40;99.90;;;;;;5025432;28;20057;-49
2024/02/21 09:30:10;;;;;;;10.83;2.80;;;9.40;99.90;;;;;;5017724;28;20117;-51
2024/02/21 09:32:36;;;;;;;6.40;2.00;;;9.40;99.90;;;;;;5017111;28;20121;-53
2024/02/21 09:35:02;;;;;;;7.53;2.47;;;9.50;99.90;;;;;;5025138;28;20064;-53
2024/02/21 09:37:27;;;;;;;6.93;2.40;;;9.50;99.90;;;;;;5015977;28;20029;-49
2024/02/21 09:39:53;;;;;;;8.53;2.83;;;9.50;99.90;;;;;;5030649;28;20099;-54
2024/02/21 09:42:21;;;;;;;7.90;2.10;;;9.50;99.90;;;;;;5019593;28;20022;-49
2024/02/21 09:44:48;;;;;;;7.63;2.37;;;9.50;99.90;;;;;;5020102;28;20036;-49
2024/02/21 09:47:37;;;;;;;9.33;1.97;;;9.40;99.90;;;;;;5020390;28;20057;-49
2024/02/21 09:50:04;;;;;;;5.83;2.00;;;9.50;99.90;;;;;;5013222;28;20100;-53
2024/02/21 09:52:30;;;;;;;8.83;2.73;;;9.50;99.90;;;;;;5008491;28;20022;-50
2024/02/21 09:54:58;;;;;;;9.23;2.13;;;9.50;99.90;;;;;;5013379;28;20026;-55
2024/02/21 09:57:24;;;;;;;8.93;2.17;;;9.50;99.90;;;;;;5010607;28;20064;-52
2024/02/21 09:59:51;;;;;;;9.20;2.50;;;9.50;99.90;;;;;;5009374;28;20025;-52
2024/02/21 10:02:49;;;;;;;9.03;1.97;;;9.60;99.90;;;;;;5010996;28;20499;-52
2024/02/21 10:06:00;;;;;;;7.37;1.97;;;9.60;99.90;;;;;;5005634;28;20040;-53
2024/02/21 10:08:26;;;;;;;7.97;2.03;;;9.60;99.90;;;;;;5026118;28;20080;-49
2024/02/21 10:10:59;;;;;;;4.87;1.90;;;9.70;99.90;;;;;;5022007;28;20171;-50
2024/02/21 10:13:26;;;;;;;7.07;1.97;;;9.70;99.90;;;;;;5020290;28;20033;-49
2024/02/21 10:16:06;;;;;;;6.10;1.93;;;9.70;99.90;;;;;;5017894;28;20017;-50
2024/02/21 10:18:32;;;;;;;;;;;9.70;99.90;;;;;;5023281;28;20044;-49
2024/02/21 10:21:06;;;;;;;5.53;1.60;;;9.70;99.90;;;;;;5016916;28;19913;-49
2024/02/21 10:23:42;;;;;;;4.63;2.00;;;9.70;99.90;;;;;;5028565;28;20037;-50
2024/02/21 10:26:08;;;;;;;5.63;1.77;;;9.60;99.90;;;;;;5010872;28;20029;-49
2024/02/21 10:28:34;;;;;;;6.90;2.13;;;9.60;99.90;;;;;;5014363;28;20041;-53
2024/02/21 10:30:59;;;;;;;5.80;2.10;;;9.60;99.90;;;;;;5017170;28;20029;-50
2024/02/21 10:33:27;;;;;;;6.00;1.40;;;9.70;99.90;;;;;;5020654;28;20102;-51
2024/02/21 10:35:53;;;;;;;4.40;1.80;;;9.70;99.90;;;;;;5029916;28;20092;-51
2024/02/21 10:38:19;;;;;;;6.20;1.80;;;9.80;99.90;;;;;;5022172;28;20561;-50
2024/02/21 10:40:47;;;;;;;4.83;2.03;;;9.80;99.90;;;;;;5020882;28;20108;-50
2024/02/21 10:43:14;;;;;;;4.60;1.73;;;9.80;99.90;;;;;;5021314;28;20196;-50
2024/02/21 10:45:41;;;;;;;6.90;1.93;;;9.90;99.90;;;;;;5019924;28;20455;-54
2024/02/21 10:48:13;;;;;;;6.50;1.53;;;9.90;99.90;;;;;;5012607;28;20099;-50
2024/02/21 10:51:05;;;;;;;2.63;1.23;;;10.00;99.90;;;;;;5016601;28;20030;-54
2024/02/21 10:53:44;;;;;;;10.00;2.33;;;10.00;99.90;;;;;;5009038;28;20036;-54
2024/02/21 10:56:22;;;;;;;5.00;1.53;;;10.20;99.90;;;;;;5013921;28;20113;-49
2024/02/21 10:58:49;;;;;;;7.63;1.48;;;10.20;99.90;;;;;;5024854;28;20025;-51
2024/02/21 11:01:15;;;;;;;5.37;2.10;;;10.20;99.90;;;;;;5016619;28;20038;-51
2024/02/21 11:03:45;;;;;;;7.27;1.97;;;10.30;99.90;;;;;;5023388;28;20508;-50
2024/02/21 11:06:12;;;;;;;5.83;1.80;;;10.30;99.90;;;;;;5015568;28;20026;-54
2024/02/21 11:08:38;;;;;;;7.03;2.20;;;10.30;99.90;;;;;;5026178;28;20034;-51
2024/02/21 11:11:05;;;;;;;4.23;1.40;;;10.30;99.90;;;;;;5025611;28;20018;-51
2024/02/21 11:13:37;;;;;;;7.13;2.30;;;10.30;99.90;;;;;;5019981;28;20132;-50
2024/02/21 11:16:10;;;;;;;9.00;1.93;;;10.30;99.90;;;;;;5028809;28;20493;-50
2024/02/21 11:18:39;;;;;;;7.83;1.70;;;10.40;99.90;;;;;;5021179;28;20061;-52
2024/02/21 11:21:05;;;;;;;5.38;1.52;;;10.40;99.90;;;;;;5028504;28;20498;-51
2024/02/21 11:23:31;;;;;;;6.17;1.67;;;10.50;99.90;;;;;;5017160;28;20033;-50
2024/02/21 11:26:10;;;;;;;6.17;1.70;;;10.50;99.90;;;;;;5017934;28;20470;-51
2024/02/21 11:28:37;;;;;;;4.78;1.55;;;10.60;99.90;;;;;;5022189;28;20355;-50
2024/02/21 11:31:13;;;;;;;4.87;2.30;;;10.70;99.90;;;;;;5022381;28;20056;-49
2024/02/21 11:33:41;;;;;;;3.63;1.57;;;10.80;99.90;;;;;;5017913;28;20125;-49
2024/02/21 11:36:08;;;;;;;8.07;1.87;;;10.70;99.90;;;;;;5020398;28;20048;-50
2024/02/21 11:38:33;;;;;;;6.67;1.87;;;10.80;99.90;;;;;;5019680;28;20030;-50
2024/02/21 11:40:59;;;;;;;3.10;1.57;;;10.80;99.90;;;;;;5012330;28;20033;-54
2024/02/21 11:43:25;;;;;;;5.20;1.70;;;10.80;99.90;;;;;;5019401;28;20057;-50
2024/02/21 11:45:58;;;;;;;4.57;1.70;;;10.80;99.90;;;;;;5025412;28;20046;-49
2024/02/21 11:48:24;;;;;;;7.80;1.93;;;10.90;99.90;;;;;;5018817;28;20038;-49
2024/02/21 11:50:54;;;;;;;5.63;2.37;;;10.80;99.90;;;;;;5022787;28;20026;-49
2024/02/21 11:53:21;;;;;;;5.70;1.73;;;10.90;99.90;;;;;;5026734;28;20045;-53
2024/02/21 11:55:46;;;;;;;6.63;2.20;;;11.00;99.90;;;;;;5028673;28;20060;-50
2024/02/21 11:58:12;;;;;;;7.10;1.87;;;11.00;99.90;;;;;;5025314;28;20061;-52
2024/02/21 12:00:38;;;;;;;9.13;2.63;;;11.10;99.90;;;;;;5015105;28;20032;-52
2024/02/21 12:03:04;;;;;;;8.73;2.80;;;11.00;99.90;;;;;;5023916;28;20064;-53
2024/02/21 12:05:31;;;;;;;9.30;2.03;;;11.00;99.90;;;;;;5024008;28;20034;-52
2024/02/21 12:07:58;;;;;;;5.43;1.90;;;11.00;99.90;;;;;;5020896;28;20025;-51
2024/02/21 12:10:23;;;;;;;10.80;2.30;;;10.90;99.90;;;;;;5029706;28;20026;-54
2024/02/21 12:12:51;;;;;;;7.33;1.70;;;10.80;99.90;;;;;;5021642;28;20442;-51
2024/02/21 12:15:18;;;;;;;8.60;2.23;;;10.80;99.90;;;;;;5021599;28;20039;-53
2024/02/21 12:17:44;;;;;;;6.17;2.10;;;10.90;99.90;;;;;;5014894;28;20438;-53
2024/02/21 12:20:13;;;;;;;7.93;1.90;;;10.90;99.90;;;;;;5014681;28;20023;-51
2024/02/21 12:22:41;;;;;;;7.63;2.28;;;10.90;99.90;;;;;;5015373;28;20029;-53
2024/02/21 12:25:33;;;;;;;5.40;1.57;;;11.00;99.90;;;;;;5012654;28;20120;-50
2024/02/21 12:28:00;;;;;;;6.87;2.13;;;11.00;99.90;;;;;;5025488;28;20041;-52
2024/02/21 12:30:26;;;;;;;5.60;2.10;;;11.00;99.90;;;;;;5032309;28;20069;-50
2024/02/21 12:32:52;;;;;;;9.67;2.60;;;11.00;99.90;;;;;;5032704;28;20060;-52
2024/02/21 12:35:18;;;;;;;6.73;2.00;;;11.10;99.90;;;;;;5014908;28;20084;-50
2024/02/21 12:37:44;;;;;;;7.13;1.90;;;11.20;99.90;;;;;;5021235;28;20057;-49
2024/02/21 12:40:10;;;;;;;4.40;1.60;;;11.30;99.90;;;;;;5029435;28;20056;-50
2024/02/21 12:42:36;;;;;;;3.33;1.80;;;11.40;99.90;;;;;;5032724;28;20067;-49
2024/02/21 12:45:05;;;;;;;5.27;1.80;;;11.60;99.90;;;;;;5017217;28;20506;-53
2024/02/21 12:47:31;;;;;;;10.23;2.10;;;11.70;99.90;;;;;;5020505;28;20050;-49
2024/02/21 12:49:56;;;;;;;6.05;1.80;;;11.80;99.90;;;;;;5012476;28;20026;-49